Time;durP1;ratioP1;P1;durP2;ratioP2;P2;SDS_P1;SDS_P2;PMS_P1;PMS_P2;Temp;Humidity;BMP_temperature;BMP_pressure;BME280_temperature;BME280_humidity;BME280_pressure;Samples;Min_cycle;Max_cycle;Signal;HPM_P1;HPM_P2
2022/07/16 00:02:17;;;;;;;0.50;0.40;;;21.80;37.30;;;19.97;40.02;101464.59;12236964;19;20503;-78
2022/07/16 00:06:20;;;;;;;0.60;0.45;;;21.80;37.40;;;19.88;40.03;101444.16;12238020;19;20010;-78
2022/07/16 00:10:22;;;;;;;0.30;0.30;;;22.00;37.70;;;19.96;40.22;101462.06;12241683;19;20644;-78
2022/07/16 00:14:23;;;;;;;0.40;0.30;;;21.80;37.90;;;19.95;40.21;101457.72;12239677;19;20013;-78
2022/07/16 00:22:45;;;;;;;1.15;0.47;;;21.70;38.00;;;19.77;40.57;101428.31;12234656;19;20015;-78
2022/07/16 00:26:47;;;;;;;1.35;0.60;;;21.70;38.10;;;19.82;40.65;101434.91;12241706;19;20038;-78
2022/07/16 00:30:49;;;;;;;1.02;0.50;;;21.60;38.10;;;19.81;40.75;101435.84;12235604;19;20014;-78
2022/07/16 00:34:51;;;;;;;3.28;0.40;;;21.60;38.20;;;19.82;40.87;101440.19;12237698;19;20498;-78
2022/07/16 00:38:52;;;;;;;1.88;0.60;;;21.60;38.20;;;19.73;40.55;101427.69;12240077;19;20018;-78
2022/07/16 00:42:54;;;;;;;0.57;0.40;;;21.80;38.30;;;19.76;40.82;101434.56;12233461;19;20011;-77
2022/07/16 00:46:56;;;;;;;0.77;0.40;;;21.60;38.30;;;19.78;40.94;101436.09;12238384;19;20027;-78
2022/07/16 00:50:57;;;;;;;0.30;0.30;;;21.50;38.40;;;19.67;40.83;101414.97;12231777;19;20010;-78
2022/07/16 00:54:59;;;;;;;1.75;0.57;;;21.50;38.40;;;19.71;41.03;101421.69;12237822;19;20018;-78
2022/07/16 00:59:01;;;;;;;0.60;0.45;;;21.50;38.40;;;19.64;41.09;101408.06;12234136;19;20039;-78
2022/07/16 01:03:05;;;;;;;0.68;0.43;;;21.50;38.50;;;19.64;41.19;101408.06;12235809;19;20452;-78
2022/07/16 01:07:08;;;;;;;0.45;0.40;;;21.60;38.60;;;19.69;41.26;101425.44;12227143;19;20014;-78
2022/07/16 01:11:13;;;;;;;0.63;0.50;;;21.40;38.50;;;19.64;41.48;101418.66;12234947;19;20018;-78
2022/07/16 01:15:14;;;;;;;0.60;0.50;;;21.40;38.60;;;19.46;41.23;101386.56;12234015;19;20060;-78
2022/07/16 01:19:16;;;;;;;0.65;0.40;;;21.60;38.70;;;19.61;41.37;101407.50;12236055;19;20019;-77
2022/07/16 01:23:22;;;;;;;0.30;0.30;;;21.40;38.80;;;19.66;41.40;101405.34;12236388;19;20073;-78
2022/07/16 01:27:24;;;;;;;1.33;0.50;;;21.40;38.80;;;19.65;41.22;101398.31;12234789;19;20017;-78
2022/07/16 01:31:26;;;;;;;0.90;0.40;;;21.40;38.80;;;19.70;41.38;101404.09;12233325;19;20023;-78
2022/07/16 01:35:27;;;;;;;0.50;0.50;;;21.40;38.70;;;19.70;41.75;101398.81;12242712;19;20472;-78
2022/07/16 01:39:33;;;;;;;0.60;0.52;;;21.40;38.70;;;19.66;41.40;101390.28;12249046;19;20018;-78
2022/07/16 01:43:35;;;;;;;0.35;0.35;;;21.40;38.70;;;19.57;41.40;101377.75;12247014;19;20010;-78
2022/07/16 01:47:36;;;;;;;0.95;0.47;;;21.40;38.60;;;19.60;41.26;101377.47;12247847;19;20021;-78
2022/07/16 01:51:39;;;;;;;0.55;0.47;;;21.40;38.60;;;19.63;41.51;101379.03;12244715;19;20023;-78
2022/07/16 01:55:41;;;;;;;0.50;0.50;;;21.40;38.60;;;19.60;41.53;101384.59;12245383;19;20025;-78
2022/07/16 01:59:44;;;;;;;0.30;0.30;;;21.40;38.60;;;19.48;41.45;101362.63;12246691;19;20014;-78
2022/07/16 02:03:45;;;;;;;0.95;0.38;;;21.40;38.60;;;19.52;41.85;101369.31;12246882;19;20018;-78
2022/07/16 02:07:47;;;;;;;0.50;0.40;;;21.40;38.60;;;19.40;41.72;101342.06;12246919;19;20010;-78
2022/07/16 02:11:49;;;;;;;0.40;0.40;;;21.30;38.70;;;19.55;41.63;101371.75;12241124;19;20048;-78
2022/07/16 02:15:50;;;;;;;0.40;0.30;;;21.30;38.60;;;19.48;41.78;101351.19;12243017;19;20342;-78
2022/07/16 02:19:52;;;;;;;0.50;0.40;;;21.30;38.70;;;19.32;41.55;101331.25;12243775;19;20361;-78
2022/07/16 02:23:54;;;;;;;0.40;0.40;;;21.30;38.70;;;19.31;41.89;101329.59;12246188;19;20377;-78
2022/07/16 02:28:08;;;;;;;1.40;0.50;;;21.20;38.70;;;19.42;41.79;101358.66;12244462;19;20015;-78
2022/07/16 02:32:10;;;;;;;1.20;0.40;;;21.20;38.80;;;19.37;42.10;101339.66;12241689;19;20035;-78
2022/07/16 02:36:11;;;;;;;0.55;0.32;;;21.30;38.90;;;19.35;42.12;101330.16;12242664;19;20014;-78
2022/07/16 02:40:13;;;;;;;0.22;0.20;;;21.10;38.90;;;19.40;42.13;101336.75;12241684;19;20018;-78
2022/07/16 02:44:15;;;;;;;1.08;0.60;;;21.40;39.10;;;19.15;41.79;101284.16;12244604;19;20013;-78
2022/07/16 02:48:17;;;;;;;0.38;0.35;;;21.10;38.90;;;19.23;42.21;101311.69;12242684;19;20010;-78
2022/07/16 02:52:20;;;;;;;0.40;0.40;;;21.20;39.10;;;19.18;42.41;101297.13;12241966;19;20361;-78
2022/07/16 02:56:22;;;;;;;1.35;0.60;;;21.10;39.00;;;19.34;42.09;101326.69;12240035;19;20086;-78
2022/07/16 03:00:25;;;;;;;0.90;0.40;;;21.30;39.10;;;19.27;42.37;101304.31;12243984;19;20101;-78
2022/07/16 03:04:26;;;;;;;0.43;0.40;;;21.10;39.00;;;19.11;42.45;101277.41;12245051;19;20078;-78
2022/07/16 03:08:28;;;;;;;0.32;0.32;;;21.00;39.00;;;19.16;42.20;101299.06;12241822;19;20018;-78
2022/07/16 03:12:30;;;;;;;0.65;0.40;;;21.00;39.10;;;19.15;42.28;101310.63;12242143;19;20506;-78
2022/07/16 03:16:31;;;;;;;0.93;0.43;;;21.00;39.00;;;18.99;42.19;101287.22;12236875;19;20029;-77
2022/07/16 03:20:33;;;;;;;2.05;0.50;;;21.00;39.10;;;19.10;42.23;101307.53;12240574;19;20099;-77
2022/07/16 03:24:36;;;;;;;0.47;0.38;;;20.90;39.00;;;18.97;42.40;101289.97;12239350;19;20025;-77
2022/07/16 03:28:38;;;;;;;0.77;0.30;;;20.90;39.20;;;19.05;42.38;101299.94;12242494;19;20025;-78
2022/07/16 03:32:40;;;;;;;0.30;0.30;;;20.90;39.20;;;18.98;42.45;101283.72;12239491;19;20015;-78
2022/07/16 03:36:42;;;;;;;0.32;0.30;;;20.80;39.30;;;19.01;42.65;101285.28;12237400;19;20106;-78
2022/07/16 03:40:44;;;;;;;0.30;0.30;;;20.80;39.30;;;18.97;42.57;101284.69;12241458;19;20368;-78
2022/07/16 03:44:45;;;;;;;0.63;0.30;;;20.80;39.60;;;18.92;42.63;101276.28;12238727;19;20053;-78
2022/07/16 03:48:47;;;;;;;0.55;0.45;;;20.80;39.30;;;19.00;42.72;101288.88;12241013;19;20018;-78
2022/07/16 03:52:49;;;;;;;0.40;0.40;;;20.80;39.30;;;18.96;42.58;101288.31;12240018;19;20035;-78
2022/07/16 03:56:50;;;;;;;0.60;0.45;;;21.10;39.40;;;18.85;42.64;101274.25;12232340;19;20031;-78
2022/07/16 04:00:53;;;;;;;0.40;0.40;;;20.80;39.40;;;18.91;42.68;101292.31;12239098;19;20483;-78
2022/07/16 04:04:55;;;;;;;0.68;0.52;;;20.80;39.40;;;18.89;42.80;101281.00;12237786;19;20048;-78
2022/07/16 04:08:57;;;;;;;0.52;0.52;;;20.70;39.40;;;18.87;42.61;101274.97;12238592;19;20017;-78
2022/07/16 04:12:59;;;;;;;0.70;0.50;;;20.80;39.40;;;18.81;42.79;101268.38;12236167;19;20014;-78
2022/07/16 04:17:00;;;;;;;0.50;0.40;;;21.00;39.40;;;18.70;42.97;101242.75;12236645;19;20018;-78
2022/07/16 04:21:04;;;;;;;0.30;0.30;;;20.70;39.40;;;18.83;42.92;101263.81;12234920;19;20090;-78
2022/07/16 04:25:06;;;;;;;1.25;0.50;;;20.70;39.40;;;18.81;42.78;101254.31;12238567;19;20014;-78
2022/07/16 04:29:08;;;;;;;0.90;0.40;;;20.70;39.40;;;18.88;42.82;101258.97;12236951;19;20018;-78
2022/07/16 04:33:11;;;;;;;0.43;0.32;;;20.70;39.50;;;18.57;42.77;101194.44;12236285;19;20019;-78
2022/07/16 04:37:13;;;;;;;0.30;0.30;;;20.70;39.50;;;18.90;42.95;101249.13;12236477;19;20025;-78
2022/07/16 04:41:15;;;;;;;0.40;0.30;;;20.70;39.50;;;18.83;43.03;101220.63;12238008;19;20019;-78
2022/07/16 04:45:16;;;;;;;0.47;0.38;;;20.80;39.50;;;18.88;43.18;101226.38;12236536;19;20021;-78
2022/07/16 04:49:18;;;;;;;1.77;0.43;;;20.70;39.50;;;18.79;43.20;101212.94;12228916;19;20031;-78
2022/07/16 04:53:19;;;;;;;0.52;0.40;;;20.70;39.50;;;18.88;42.92;101227.22;12235990;19;20014;-77
2022/07/16 04:57:21;;;;;;;1.08;0.47;;;20.90;39.60;;;18.74;43.12;101201.00;12235342;19;20018;-78
2022/07/16 05:01:23;;;;;;;1.25;0.50;;;20.70;39.70;;;18.79;43.09;101201.50;12234425;19;20024;-78
2022/07/16 05:05:32;;;;;;;0.50;0.50;;;20.60;39.60;;;18.85;43.51;101214.25;12238614;19;20014;-78
2022/07/16 05:09:34;;;;;;;1.23;0.50;;;20.70;39.70;;;18.79;43.46;101205.00;12243178;19;20034;-78
2022/07/16 05:13:36;;;;;;;1.52;1.00;;;20.90;39.80;;;18.78;43.17;101219.19;12243508;19;20018;-78
2022/07/16 05:17:38;;;;;;;0.68;0.68;;;20.70;39.70;;;18.74;43.50;101208.94;12252561;19;20026;-78
2022/07/16 05:21:39;;;;;;;2.25;1.08;;;20.70;40.00;;;18.48;43.71;101168.75;12245324;19;20472;-79
2022/07/16 05:25:41;;;;;;;2.28;1.08;;;20.60;40.10;;;18.65;43.55;101197.31;12251526;19;20022;-78
2022/07/16 05:29:43;;;;;;;1.33;1.20;;;20.80;40.30;;;18.62;43.91;101194.09;12248159;19;20532;-78
2022/07/16 05:33:44;;;;;;;1.60;1.30;;;20.60;40.30;;;18.78;43.51;101221.00;12243809;19;20089;-78
2022/07/16 05:37:46;;;;;;;1.75;1.10;;;20.60;40.20;;;18.72;43.82;101208.25;12247496;19;20035;-78
2022/07/16 05:41:48;;;;;;;2.97;1.30;;;20.60;40.40;;;18.65;43.95;101193.81;12246699;19;20027;-79
2022/07/16 05:45:49;;;;;;;2.60;1.10;;;20.60;40.90;;;18.65;44.38;101188.53;12247344;19;20018;-79
2022/07/16 05:49:51;;;;;;;1.52;1.33;;;20.60;41.10;;;18.67;44.21;101186.63;12247380;19;20035;-80
2022/07/16 05:53:53;;;;;;;4.20;1.30;;;20.50;41.20;;;18.58;44.46;101175.00;12243648;19;20330;-79
2022/07/16 05:57:54;;;;;;;2.60;1.30;;;20.60;41.10;;;18.65;44.46;101185.91;12245027;19;20349;-82
2022/07/16 06:01:56;;;;;;;2.13;1.45;;;20.70;41.00;;;18.67;44.41;101190.09;12245949;19;20010;-91
2022/07/16 06:05:59;;;;;;;1.63;0.60;;;20.50;41.20;;;18.65;44.51;101181.44;12230300;19;20448;-86
2022/07/16 06:10:02;;;;;;;1.15;0.88;;;20.50;41.30;;;18.64;44.59;101182.41;12231492;19;20014;-90
2022/07/16 06:14:05;;;;;;;0.60;0.60;;;20.60;41.20;;;18.44;44.73;101148.81;12237330;19;20020;-86
2022/07/16 06:18:06;;;;;;;1.52;0.93;;;20.50;41.20;;;18.63;44.62;101174.59;12235594;19;20021;-87
2022/07/16 06:22:11;;;;;;;2.63;0.98;;;20.60;41.30;;;18.76;44.69;101186.72;12231393;19;20027;-88
2022/07/16 06:26:12;;;;;;;1.03;0.80;;;20.90;41.40;;;18.83;44.62;101195.00;12236078;19;20061;-85
2022/07/16 06:30:14;;;;;;;0.63;0.63;;;20.90;41.40;;;18.89;44.74;101207.72;12231893;19;20555;-88
2022/07/16 06:34:16;;;;;;;3.25;0.75;;;20.70;41.20;;;18.91;44.88;101220.84;12233429;19;20031;-89
2022/07/16 06:38:18;;;;;;;1.25;0.90;;;20.70;41.90;;;18.81;45.10;101207.50;12233964;19;20039;-89
2022/07/16 06:42:20;;;;;;;1.52;0.60;;;20.90;41.90;;;18.69;45.27;101206.69;12232136;19;20026;-86
2022/07/16 06:46:24;;;;;;;2.13;0.80;;;20.70;42.20;;;18.69;45.27;101222.56;12234539;19;20014;-83
2022/07/16 06:50:26;;;;;;;1.85;0.73;;;20.60;42.40;;;18.55;45.71;101210.47;12209312;19;20018;-84
2022/07/16 06:54:27;;;;;;;1.00;0.65;;;20.70;42.80;;;18.66;46.00;101243.13;12226000;19;20011;-83
2022/07/16 06:58:29;;;;;;;0.60;0.60;;;20.60;43.00;;;18.39;46.10;101219.72;12231963;19;20018;-82
2022/07/16 07:02:31;;;;;;;1.50;0.63;;;20.80;43.40;;;18.46;46.33;101242.09;12226239;19;20017;-81
2022/07/16 07:06:33;;;;;;;1.25;0.70;;;20.50;43.60;;;18.34;46.43;101249.22;12229876;19;20038;-83
2022/07/16 07:10:34;;;;;;;2.72;0.70;;;20.40;43.90;;;18.31;46.90;101239.72;12228880;19;20049;-81
2022/07/16 07:14:36;;;;;;;0.73;0.63;;;20.30;44.20;;;18.25;47.01;101256.03;12227556;19;21097;-81
2022/07/16 07:18:37;;;;;;;1.27;0.70;;;20.20;44.40;;;18.21;47.31;101264.38;12226260;19;20014;-83
2022/07/16 07:22:39;;;;;;;1.30;0.88;;;20.20;44.60;;;18.01;47.25;101244.75;12222085;19;20558;-82
2022/07/16 07:26:43;;;;;;;3.05;0.77;;;20.50;45.00;;;18.08;48.07;101253.91;12227083;19;20406;-83
2022/07/16 07:30:45;;;;;;;2.90;0.97;;;20.00;45.50;;;17.80;47.81;101197.09;12222540;19;20535;-83
2022/07/16 07:34:47;;;;;;;1.30;0.70;;;20.00;45.80;;;18.08;48.07;101233.59;12224717;19;20010;-82
2022/07/16 07:38:48;;;;;;;1.02;0.70;;;20.00;46.30;;;18.09;48.16;101235.28;12227622;19;20028;-84
2022/07/16 07:42:50;;;;;;;0.65;0.55;;;20.00;46.90;;;18.26;48.17;101247.19;12223694;19;20022;-85
2022/07/16 07:46:51;;;;;;;1.02;0.70;;;20.20;46.60;;;18.36;48.34;101260.50;12220102;19;20661;-83
2022/07/16 07:50:56;;;;;;;0.95;0.70;;;20.20;46.80;;;18.40;48.84;101259.28;12223172;19;20043;-84
2022/07/16 07:54:58;;;;;;;0.98;0.80;;;20.50;47.40;;;18.48;48.87;101271.91;12223219;19;20011;-84
2022/07/16 07:58:59;;;;;;;2.10;1.02;;;20.30;47.30;;;18.53;48.94;101288.25;12224303;19;20010;-84
2022/07/16 08:03:01;;;;;;;0.70;0.70;;;20.30;47.00;;;18.50;48.85;101292.00;12221516;19;20425;-83
2022/07/16 08:07:03;;;;;;;0.75;0.73;;;20.30;46.90;;;18.47;49.00;101276.38;12220473;19;20018;-84
2022/07/16 08:11:04;;;;;;;0.68;0.68;;;20.40;47.10;;;18.59;49.10;101279.81;12221357;19;20543;-83
2022/07/16 08:15:08;;;;;;;1.30;0.75;;;20.40;47.10;;;18.46;49.48;101245.56;12224587;19;20048;-82
2022/07/16 08:19:10;;;;;;;0.80;0.70;;;20.40;47.40;;;18.93;49.20;101280.63;12223650;19;20022;-84
2022/07/16 08:23:11;;;;;;;0.90;0.80;;;20.50;47.80;;;18.91;49.04;101234.06;12223776;19;20041;-80
2022/07/16 08:27:13;;;;;;;1.00;0.85;;;20.90;48.00;;;19.36;49.00;101268.25;12225158;19;20014;-78
2022/07/16 08:31:14;;;;;;;0.90;0.90;;;20.80;47.90;;;19.45;48.97;101273.66;12209911;19;20026;-78
2022/07/16 08:35:16;;;;;;;1.85;1.08;;;21.10;47.70;;;19.58;49.25;101280.56;12223060;19;20086;-79
2022/07/16 08:39:19;;;;;;;2.10;0.88;;;21.20;47.20;;;19.68;49.26;101278.84;12218290;19;20356;-78
2022/07/16 08:43:21;;;;;;;1.33;0.82;;;21.40;47.00;;;19.87;48.97;101289.56;12220514;19;20314;-78
2022/07/16 08:47:22;;;;;;;1.15;0.90;;;21.40;46.70;;;19.98;48.93;101286.00;12223136;19;20388;-78
2022/07/16 08:51:32;;;;;;;1.17;0.80;;;21.50;46.70;;;20.08;48.87;101286.03;12219373;19;20029;-78
2022/07/16 08:55:36;;;;;;;0.80;0.80;;;21.70;46.20;;;20.06;48.62;101282.66;12220789;19;20015;-77
2022/07/16 08:59:38;;;;;;;1.35;0.90;;;21.80;45.80;;;20.23;48.52;101307.75;12221668;19;20443;-77
2022/07/16 09:03:40;;;;;;;2.85;0.70;;;21.90;45.90;;;19.88;48.49;101232.09;12225185;19;20022;-78
2022/07/16 09:07:41;;;;;;;1.27;0.90;;;22.00;45.60;;;20.30;48.13;101290.31;12218494;19;20115;-80
2022/07/16 09:11:43;;;;;;;0.63;0.63;;;22.00;45.50;;;20.64;48.39;101321.88;12221646;19;20504;-80
2022/07/16 09:15:45;;;;;;;0.60;0.60;;;22.20;45.00;;;20.65;47.93;101273.94;12227081;19;20094;-79
2022/07/16 09:19:46;;;;;;;1.10;0.73;;;22.40;44.60;;;21.08;47.65;101314.41;12228679;19;20098;-81
2022/07/16 09:23:48;;;;;;;2.60;0.60;;;22.50;44.60;;;21.19;47.63;101319.56;12227268;19;20018;-81
2022/07/16 09:28:00;;;;;;;0.70;0.70;;;22.80;43.90;;;21.14;47.37;101274.84;12232581;19;20015;-80
2022/07/16 09:32:03;;;;;;;0.77;0.60;;;22.90;43.50;;;21.51;46.59;101315.81;12233192;19;20011;-80
2022/07/16 09:36:12;;;;;;;0.80;0.80;;;23.00;43.10;;;21.76;46.48;101328.50;12226489;19;20017;-80
2022/07/16 09:40:15;;;;;;;0.98;0.52;;;23.30;42.90;;;21.92;46.24;101317.28;12232859;19;20348;-80
2022/07/16 09:44:22;;;;;;;1.27;0.60;;;23.40;42.90;;;22.26;45.93;101335.41;12233308;19;20015;-80
2022/07/16 09:48:30;;;;;;;0.55;0.50;;;23.80;42.10;;;22.42;45.15;101346.28;12234123;19;20026;-80
2022/07/16 09:52:37;;;;;;;0.52;0.50;;;23.90;41.10;;;22.24;45.44;101321.41;12230393;19;20082;-80
2022/07/16 09:56:42;;;;;;;0.75;0.60;;;23.90;40.80;;;22.26;45.26;101346.06;12239702;19;20023;-81
2022/07/16 10:00:45;;;;;;;1.55;0.50;;;24.00;40.50;;;22.25;44.64;101342.56;12244405;19;20110;-79
2022/07/16 10:04:47;;;;;;;0.30;0.30;;;24.00;40.10;;;22.36;44.46;101346.88;12242748;19;20022;-80
2022/07/16 10:08:48;;;;;;;0.88;0.60;;;24.30;40.00;;;22.48;44.66;101340.34;12245415;19;20039;-80
2022/07/16 10:12:50;;;;;;;1.50;0.60;;;24.30;40.10;;;22.69;44.08;101344.59;12239045;19;20015;-79
2022/07/16 10:16:59;;;;;;;0.52;0.50;;;24.30;39.90;;;22.68;44.04;101340.25;12241037;19;20040;-79
2022/07/16 10:21:09;;;;;;;1.02;0.60;;;24.30;39.40;;;22.76;43.48;101366.97;12239439;19;20535;-80
2022/07/16 10:25:17;;;;;;;0.63;0.60;;;24.40;38.70;;;22.69;43.23;101356.09;12244868;19;20361;-80
2022/07/16 10:29:42;;;;;;;2.55;0.45;;;24.40;38.80;;;22.77;43.51;101363.34;12240145;19;20369;-79
2022/07/16 10:33:43;;;;;;;0.70;0.65;;;24.40;39.10;;;22.89;43.05;101369.28;12244851;19;20468;-79
2022/07/16 10:37:46;;;;;;;1.30;0.60;;;24.50;38.60;;;22.79;43.40;101352.53;12241283;19;20010;-79
2022/07/16 10:41:59;;;;;;;2.05;0.80;;;24.60;38.70;;;23.03;42.60;101374.13;12240545;19;20014;-78
2022/07/16 10:46:04;;;;;;;0.70;0.57;;;24.70;38.50;;;23.04;42.69;101335.88;12243025;19;20283;-80
2022/07/16 10:50:22;;;;;;;0.60;0.50;;;24.70;38.10;;;23.23;42.63;101366.88;12229972;19;20022;-79
2022/07/16 10:54:30;;;;;;;0.60;0.60;;;24.80;37.80;;;23.35;42.15;101384.28;12231209;19;20370;-80
2022/07/16 10:58:31;;;;;;;0.82;0.45;;;24.90;38.00;;;23.31;42.30;101390.09;12228020;19;20015;-79
2022/07/16 11:02:41;;;;;;;0.60;0.60;;;25.00;37.60;;;23.21;41.76;101387.50;12227669;19;20018;-79
2022/07/16 11:06:50;;;;;;;2.25;0.88;;;25.00;37.50;;;23.09;41.65;101362.91;12228230;19;20018;-79
2022/07/16 11:10:52;;;;;;;0.80;0.57;;;25.10;37.40;;;23.33;41.68;101382.75;12228843;19;20031;-79
2022/07/16 11:14:56;;;;;;;0.50;0.50;;;24.90;37.30;;;23.48;41.26;101391.09;12227271;19;20052;-78
2022/07/16 11:19:01;;;;;;;5.05;0.90;;;25.00;37.40;;;23.48;41.57;101391.91;12230218;19;20014;-78
2022/07/16 11:23:08;;;;;;;0.93;0.60;;;25.10;37.30;;;23.40;41.28;101402.50;12226148;19;20018;-78
2022/07/16 11:27:09;;;;;;;7.20;0.60;;;25.20;37.10;;;23.32;41.51;101413.09;12228692;19;20022;-77
2022/07/16 11:31:11;;;;;;;0.50;0.50;;;25.10;36.80;;;23.01;41.05;101383.25;12227821;19;20026;-79
2022/07/16 11:35:14;;;;;;;0.60;0.50;;;25.20;37.00;;;23.14;41.21;101405.06;12225235;19;20022;-77
2022/07/16 11:39:24;;;;;;;2.50;0.75;;;25.10;36.90;;;23.18;41.16;101433.09;12228656;19;20010;-76
2022/07/16 11:43:29;;;;;;;0.77;0.50;;;24.90;36.70;;;23.17;40.76;101448.25;12230661;19;20010;-77
2022/07/16 11:47:30;;;;;;;1.83;0.80;;;24.90;36.70;;;23.18;40.97;101438.44;12228747;19;20264;-77
2022/07/16 11:51:37;;;;;;;2.10;0.88;;;25.00;36.50;;;23.21;40.83;101421.31;12224032;19;20082;-77
2022/07/16 11:55:45;;;;;;;2.25;0.60;;;24.90;36.60;;;23.37;40.09;101427.63;12225948;19;20043;-78
2022/07/16 11:59:50;;;;;;;1.23;0.70;;;24.90;36.00;;;23.54;40.09;101433.13;12224683;19;20023;-78
2022/07/16 12:03:54;;;;;;;0.80;0.68;;;25.00;36.10;;;23.67;40.33;101432.75;12227910;19;20022;-78
2022/07/16 12:07:56;;;;;;;0.85;0.82;;;25.10;36.10;;;23.77;40.09;101433.53;12227478;19;20027;-78
2022/07/16 12:12:02;;;;;;;2.65;1.40;;;25.30;35.70;;;23.89;39.37;101431.47;12223154;19;20015;-78
2022/07/16 12:16:04;;;;;;;1.48;0.75;;;25.40;35.80;;;24.04;39.66;101441.44;12223153;19;20014;-78
2022/07/16 12:20:25;;;;;;;1.08;0.70;;;25.50;35.50;;;24.08;38.98;101431.28;12220534;19;20022;-78
2022/07/16 12:24:30;;;;;;;1.90;0.85;;;25.60;34.40;;;24.12;38.81;101447.84;12228902;19;20082;-78
2022/07/16 12:28:32;;;;;;;1.20;0.80;;;25.80;34.80;;;24.12;38.72;101467.34;12223238;19;21247;-77
2022/07/16 12:32:49;;;;;;;1.33;0.60;;;25.80;34.90;;;24.21;38.38;101479.75;12223583;19;20792;-77
2022/07/16 12:36:51;;;;;;;1.00;0.40;;;25.80;34.40;;;24.22;38.12;101480.56;12196096;19;20054;-78
2022/07/16 12:40:52;;;;;;;0.40;0.32;;;25.90;34.00;;;24.22;38.08;101470.75;12221349;19;20094;-77
2022/07/16 12:44:54;;;;;;;1.52;0.50;;;25.80;33.90;;;24.24;37.65;101463.41;12218684;19;20018;-78
2022/07/16 12:49:06;;;;;;;0.95;0.57;;;25.90;34.10;;;24.42;37.37;101483.91;12215967;19;20015;-76
2022/07/16 12:53:08;;;;;;;1.80;0.60;;;25.90;33.50;;;24.18;37.77;101469.38;12217435;19;20035;-77
2022/07/16 13:01:33;;;;;;;0.50;0.50;;;25.90;33.50;;;24.00;37.42;101493.41;12218626;19;20014;-77
2022/07/16 13:05:34;;;;;;;0.75;0.50;;;25.80;33.10;;;23.89;37.39;101485.66;12222023;19;20014;-76
2022/07/16 13:09:36;;;;;;;1.42;0.80;;;25.70;33.00;;;23.73;37.05;101490.84;12218133;19;20386;-77
2022/07/16 13:13:40;;;;;;;0.45;0.45;;;25.70;33.20;;;23.91;37.43;101514.84;12220812;19;20018;-76
2022/07/16 13:17:41;;;;;;;1.95;0.55;;;25.70;33.80;;;24.04;37.25;101510.81;12219292;19;20018;-77
2022/07/16 13:21:43;;;;;;;0.50;0.50;;;25.60;33.60;;;23.92;37.15;101487.19;12220829;19;20035;-77
2022/07/16 13:25:44;;;;;;;1.38;0.60;;;25.60;33.20;;;24.08;37.04;101511.34;12222419;19;20022;-77
2022/07/16 13:29:47;;;;;;;1.83;0.80;;;25.70;33.30;;;24.17;37.01;101515.75;12228525;19;20018;-77
2022/07/16 13:33:49;;;;;;;1.27;0.63;;;25.70;33.40;;;24.24;36.89;101499.94;12233198;19;20018;-78
2022/07/16 13:37:51;;;;;;;0.70;0.70;;;26.00;33.50;;;24.42;36.13;101514.13;12236130;19;20021;-78
2022/07/16 13:41:53;;;;;;;1.38;0.60;;;25.90;33.70;;;24.55;36.10;101524.41;12229714;19;20015;-78
2022/07/16 13:45:55;;;;;;;1.25;0.50;;;26.00;33.30;;;24.56;36.13;101517.25;12236749;19;20022;-77
2022/07/16 13:49:57;;;;;;;1.83;0.50;;;26.00;32.90;;;24.55;35.71;101497.72;12232729;19;20018;-77
2022/07/16 13:53:58;;;;;;;0.85;0.60;;;26.20;32.90;;;24.68;35.96;101529.31;12232435;19;20030;-77
2022/07/16 13:58:13;;;;;;;1.60;0.50;;;26.30;32.70;;;24.70;35.53;101543.38;12235620;19;20029;-77
2022/07/16 14:02:14;;;;;;;1.23;0.60;;;26.30;32.50;;;24.43;35.67;101515.78;12228170;19;20047;-76
2022/07/16 14:06:17;;;;;;;1.13;0.50;;;26.30;32.50;;;24.51;35.76;101555.09;12233219;19;20007;-76
2022/07/16 14:10:19;;;;;;;0.73;0.50;;;26.20;32.40;;;24.51;35.62;101549.75;12231336;19;20121;-77
2022/07/16 14:14:21;;;;;;;4.93;0.52;;;26.40;32.50;;;24.41;35.21;101556.97;12233116;19;20349;-77
2022/07/16 14:18:24;;;;;;;0.50;0.40;;;26.20;32.20;;;24.37;35.64;101555.63;12231169;19;20034;-77
2022/07/16 14:22:25;;;;;;;0.98;0.40;;;26.10;32.40;;;24.30;35.54;101542.03;12231020;19;20034;-77
2022/07/16 14:26:27;;;;;;;1.83;0.50;;;26.10;32.40;;;24.41;35.45;101535.63;12231680;19;20078;-77
2022/07/16 14:30:28;;;;;;;1.17;0.60;;;26.00;32.20;;;24.57;35.26;101543.78;12230834;19;20029;-77
2022/07/16 14:34:30;;;;;;;2.33;0.43;;;26.10;32.10;;;24.65;34.68;101540.31;12231160;19;20394;-77
2022/07/16 14:38:32;;;;;;;3.30;0.68;;;26.20;32.20;;;24.74;34.85;101550.09;12232512;19;20577;-78
2022/07/16 14:42:36;;;;;;;0.55;0.55;;;26.20;32.10;;;24.72;34.34;101536.03;12227543;19;20510;-77
2022/07/16 14:46:39;;;;;;;3.77;0.87;;;26.30;31.60;;;24.81;34.49;101547.59;12230745;19;20010;-77
2022/07/16 14:50:40;;;;;;;2.97;0.77;;;26.50;32.30;;;24.85;34.31;101563.19;12229394;19;20366;-77
2022/07/16 14:54:42;;;;;;;1.42;0.75;;;26.30;31.70;;;24.70;34.34;101554.88;12226883;19;20023;-77
2022/07/16 14:58:43;;;;;;;8.48;0.60;;;26.40;31.40;;;24.67;34.04;101554.38;12230256;19;20022;-77
2022/07/16 15:02:45;;;;;;;1.63;0.55;;;26.30;31.20;;;24.63;34.25;101547.69;12227974;19;20061;-77
2022/07/16 15:06:46;;;;;;;0.60;0.60;;;26.30;31.60;;;24.80;33.98;101570.81;12231389;19;20461;-77
2022/07/16 15:10:48;;;;;;;2.13;0.65;;;26.30;31.50;;;24.77;34.05;101575.66;12226378;19;20019;-77
2022/07/16 15:14:50;;;;;;;1.80;0.80;;;26.40;31.60;;;24.71;33.81;101564.59;12228055;19;20081;-76
2022/07/16 15:18:55;;;;;;;4.90;0.70;;;26.30;31.60;;;24.79;33.99;101577.16;12227257;19;20023;-77
2022/07/16 15:22:57;;;;;;;0.38;0.38;;;26.30;31.60;;;24.70;34.13;101557.56;12227187;19;20378;-77
2022/07/16 15:26:58;;;;;;;0.30;0.30;;;26.40;31.80;;;24.81;33.85;101577.84;12229175;19;20030;-77
2022/07/16 15:31:00;;;;;;;1.55;0.45;;;26.40;31.50;;;24.73;33.48;101562.63;12225694;19;20018;-77
2022/07/16 15:35:03;;;;;;;2.05;0.75;;;26.40;31.30;;;24.80;33.35;101576.16;12228236;19;20018;-77
2022/07/16 15:39:05;;;;;;;0.60;0.50;;;26.40;31.40;;;24.76;33.11;101579.28;12228451;19;20494;-77
2022/07/16 15:43:07;;;;;;;1.13;0.63;;;26.40;31.20;;;24.86;33.65;101596.06;12227088;19;20585;-77
2022/07/16 15:47:08;;;;;;;1.65;0.65;;;26.40;31.20;;;24.72;33.25;101579.63;12228162;19;20397;-76
2022/07/16 15:51:10;;;;;;;3.47;0.55;;;26.40;31.30;;;24.86;33.28;101588.06;12226070;19;20496;-76
2022/07/16 15:55:12;;;;;;;2.80;0.63;;;26.50;31.20;;;24.85;33.03;101594.41;12225395;19;20010;-77
2022/07/16 15:59:14;;;;;;;3.08;0.60;;;26.60;31.00;;;24.86;32.88;101601.41;12226909;19;20053;-77
2022/07/16 16:03:15;;;;;;;2.38;0.90;;;26.40;30.90;;;24.69;33.21;101587.94;12226195;19;20011;-77
2022/07/16 16:07:17;;;;;;;1.90;0.60;;;26.40;30.60;;;24.72;33.02;101611.69;12227239;19;20019;-76
2022/07/16 16:11:18;;;;;;;0.68;0.50;;;26.60;30.90;;;24.64;32.92;101608.09;12226667;19;20615;-77
2022/07/16 16:15:20;;;;;;;1.25;0.80;;;26.30;30.80;;;24.60;33.18;101588.03;12209498;19;20018;-76
2022/07/16 16:19:22;;;;;;;3.25;1.10;;;26.30;30.90;;;24.71;33.02;101599.31;12225969;19;20081;-76
2022/07/16 16:23:23;;;;;;;2.92;1.00;;;26.50;31.00;;;24.73;32.54;101612.50;12221830;19;20483;-76
2022/07/16 16:27:25;;;;;;;1.65;0.80;;;26.30;31.00;;;24.61;32.61;101611.09;12225177;19;20014;-76
2022/07/16 16:31:27;;;;;;;0.80;0.73;;;26.30;30.80;;;24.59;33.12;101629.09;12222982;19;20018;-76
2022/07/16 16:35:29;;;;;;;2.42;0.95;;;26.30;30.90;;;24.31;32.85;101599.78;12224655;19;20042;-76
2022/07/16 16:39:31;;;;;;;1.48;0.80;;;26.20;30.80;;;24.30;33.18;101614.13;12224885;19;20136;-76
2022/07/16 16:43:33;;;;;;;0.95;0.60;;;26.10;30.90;;;24.29;32.95;101631.97;12224964;19;20027;-76
2022/07/16 16:47:35;;;;;;;1.90;0.73;;;26.10;30.90;;;24.21;32.72;101634.56;12225301;19;20022;-76